createdAt,value
2018-07-12T00:01:18.613Z,17.20
2018-07-12T00:03:45.900Z,17.20
2018-07-12T00:06:13.283Z,17.30
2018-07-12T00:08:40.562Z,17.30
2018-07-12T00:11:07.842Z,17.30
2018-07-12T00:13:35.128Z,17.40
2018-07-12T00:16:02.397Z,17.30
2018-07-12T00:18:29.737Z,17.40
2018-07-12T00:20:57.004Z,17.40
2018-07-12T00:23:24.300Z,17.40
2018-07-12T00:25:51.575Z,17.40
2018-07-12T00:30:46.408Z,17.40
2018-07-12T00:33:13.692Z,17.40
2018-07-12T00:35:40.992Z,17.40
2018-07-12T00:38:08.260Z,17.30
2018-07-12T00:40:35.548Z,17.30
2018-07-12T00:43:02.805Z,17.40
2018-07-12T00:45:30.085Z,17.40
2018-07-12T00:47:57.352Z,17.30
2018-07-12T00:50:24.640Z,17.30
2018-07-12T00:52:52.000Z,17.40
2018-07-12T00:55:19.310Z,17.40
2018-07-12T00:57:46.579Z,17.40
2018-07-12T01:00:13.847Z,17.40
2018-07-12T01:02:41.131Z,17.40
2018-07-12T01:05:08.398Z,17.40
2018-07-12T01:07:35.708Z,17.40
2018-07-12T01:10:02.988Z,17.50
2018-07-12T01:12:30.269Z,17.50
2018-07-12T01:14:57.527Z,17.50
2018-07-12T01:17:24.808Z,17.50
2018-07-12T01:19:52.088Z,17.40
2018-07-12T01:22:19.376Z,17.40
2018-07-12T01:24:46.649Z,17.40
2018-07-12T01:29:41.543Z,17.40
2018-07-12T01:32:08.816Z,17.30
2018-07-12T01:37:03.691Z,17.30
2018-07-12T01:39:30.970Z,17.30
2018-07-12T01:41:58.292Z,17.30
2018-07-12T01:44:25.576Z,17.20
2018-07-12T01:46:52.852Z,17.20
2018-07-12T01:49:20.133Z,17.20
2018-07-12T01:51:47.404Z,17.30
2018-07-12T01:54:14.741Z,17.30
2018-07-12T01:56:42.008Z,17.40
2018-07-12T01:59:09.317Z,17.30
2018-07-12T02:01:36.593Z,17.30
2018-07-12T02:04:03.858Z,17.30
2018-07-12T02:06:31.124Z,17.30
2018-07-12T02:08:58.411Z,17.40
2018-07-12T02:11:25.668Z,17.30
2018-07-12T02:13:52.936Z,17.20
2018-07-12T02:16:20.232Z,17.20
2018-07-12T02:18:47.525Z,17.30
2018-07-12T02:21:14.824Z,17.20
2018-07-12T02:23:42.108Z,17.10
2018-07-12T02:26:09.463Z,17.10
2018-07-12T02:28:36.735Z,17.10
2018-07-12T02:31:04.010Z,17.10
2018-07-12T02:33:31.520Z,17.10
2018-07-12T02:35:58.809Z,17.00
2018-07-12T02:38:26.076Z,16.90
2018-07-12T02:40:53.365Z,16.80
2018-07-12T02:43:20.637Z,16.70
2018-07-12T02:45:47.913Z,16.60
2018-07-12T02:48:15.201Z,16.60
2018-07-12T02:50:42.511Z,16.50
2018-07-12T02:53:09.789Z,16.40
2018-07-12T02:55:37.076Z,16.40
2018-07-12T02:58:04.375Z,16.40
2018-07-12T03:00:31.642Z,16.40
2018-07-12T03:02:58.918Z,16.40
2018-07-12T03:05:26.231Z,16.30
2018-07-12T03:07:53.513Z,16.30
2018-07-12T03:10:20.770Z,16.30
2018-07-12T03:12:48.055Z,16.30
2018-07-12T03:15:15.329Z,16.20
2018-07-12T03:17:42.612Z,16.20
2018-07-12T03:20:09.902Z,16.20
2018-07-12T03:22:37.184Z,16.20
2018-07-12T03:25:04.473Z,16.10
2018-07-12T03:27:31.808Z,16.10
2018-07-12T03:29:59.097Z,16.10
2018-07-12T03:32:26.393Z,16.00
2018-07-12T03:34:53.685Z,16.00
2018-07-12T03:37:20.972Z,16.00
2018-07-12T03:39:48.252Z,16.00
2018-07-12T03:42:15.515Z,16.00
2018-07-12T03:44:42.805Z,16.10
2018-07-12T03:47:10.100Z,16.10
2018-07-12T03:49:37.381Z,16.10
2018-07-12T03:52:04.652Z,16.10
2018-07-12T03:54:31.932Z,16.10
2018-07-12T03:56:59.204Z,16.10
2018-07-12T03:59:26.461Z,16.20
2018-07-12T04:01:53.741Z,16.30
2018-07-12T04:04:21.044Z,16.30
2018-07-12T04:06:48.306Z,16.30
2018-07-12T04:09:15.580Z,16.30
2018-07-12T04:11:42.836Z,16.40
2018-07-12T04:14:10.113Z,16.40
2018-07-12T04:16:37.397Z,16.40
2018-07-12T04:19:04.676Z,16.40
2018-07-12T04:21:32.000Z,16.40
2018-07-12T04:23:59.276Z,16.50
2018-07-12T04:26:26.540Z,16.60
2018-07-12T04:28:53.817Z,16.60
2018-07-12T04:31:21.304Z,16.70
2018-07-12T04:33:48.573Z,16.80
2018-07-12T04:36:15.861Z,16.80
2018-07-12T04:41:10.697Z,16.90
2018-07-12T04:43:37.979Z,17.00
2018-07-12T04:46:05.252Z,17.10
2018-07-12T04:48:32.581Z,17.10
2018-07-12T04:50:59.855Z,17.10
2018-07-12T04:53:27.144Z,17.10
2018-07-12T04:55:54.426Z,17.20
2018-07-12T04:58:21.787Z,17.30
2018-07-12T05:00:49.013Z,17.40
2018-07-12T05:03:16.308Z,17.50
2018-07-12T05:05:43.585Z,17.60
2018-07-12T05:08:10.989Z,17.50
2018-07-12T05:10:38.312Z,17.50
2018-07-12T05:13:05.602Z,17.50
2018-07-12T05:15:32.876Z,17.60
2018-07-12T05:18:00.177Z,17.60
2018-07-12T05:20:27.456Z,17.60
2018-07-12T05:22:54.732Z,17.70
2018-07-12T05:25:21.992Z,17.90
2018-07-12T05:27:49.254Z,17.90
2018-07-12T05:30:16.539Z,18.10
2018-07-12T05:32:43.825Z,18.30
2018-07-12T05:35:11.141Z,18.60
2018-07-12T05:37:39.780Z,18.90
2018-07-12T05:40:15.065Z,19.20
2018-07-12T05:42:43.483Z,19.10
2018-07-12T05:45:11.920Z,19.20
2018-07-12T05:47:40.304Z,19.10
2018-07-12T05:50:08.735Z,19.10
2018-07-12T05:52:37.183Z,18.90
2018-07-12T05:55:05.613Z,18.90
2018-07-12T05:57:34.073Z,18.80
2018-07-12T06:00:02.517Z,18.60
2018-07-12T06:02:30.957Z,18.60
2018-07-12T06:04:59.436Z,18.50
2018-07-12T06:07:30.068Z,18.80
2018-07-12T06:09:58.691Z,19.00
2018-07-12T06:12:27.083Z,19.50
2018-07-12T06:14:55.517Z,19.80
2018-07-12T06:17:24.001Z,19.90
2018-07-12T06:19:52.380Z,20.10
2018-07-12T06:22:20.823Z,20.80
2018-07-12T06:24:49.245Z,21.80
2018-07-12T06:27:17.940Z,22.30
2018-07-12T06:29:46.480Z,22.60
2018-07-12T06:32:14.881Z,23.10
2018-07-12T06:34:43.277Z,23.40
2018-07-12T06:37:11.882Z,23.60
2018-07-12T06:39:40.229Z,23.80
2018-07-12T06:42:08.697Z,23.60
2018-07-12T06:44:37.167Z,23.20
2018-07-12T06:47:05.588Z,22.80
2018-07-12T06:49:34.018Z,22.20
2018-07-12T06:52:02.501Z,21.70
2018-07-12T06:54:30.896Z,21.10
2018-07-12T06:56:59.299Z,20.70
2018-07-12T06:59:27.758Z,20.90
2018-07-12T07:01:56.240Z,21.00
2018-07-12T07:04:24.640Z,21.10
2018-07-12T07:06:53.044Z,20.40
2018-07-12T07:09:21.564Z,20.40
2018-07-12T07:11:49.971Z,20.60
2018-07-12T07:14:18.528Z,20.40
2018-07-12T07:16:47.089Z,20.60
2018-07-12T07:19:15.500Z,20.60
2018-07-12T07:21:43.915Z,20.70
2018-07-12T07:24:12.342Z,20.60
2018-07-12T07:26:41.417Z,20.70
2018-07-12T07:29:09.888Z,20.70
2018-07-12T07:31:38.276Z,20.50
2018-07-12T07:34:06.687Z,20.40
2018-07-12T07:36:35.072Z,20.30
2018-07-12T07:39:04.070Z,20.60
2018-07-12T07:41:32.477Z,20.90
2018-07-12T07:44:00.895Z,21.00
2018-07-12T07:46:29.277Z,21.00
2018-07-12T07:48:57.740Z,21.30
2018-07-12T07:51:26.196Z,21.50
2018-07-12T07:53:54.616Z,21.80
2018-07-12T07:56:23.217Z,21.70
2018-07-12T07:58:52.144Z,21.60
2018-07-12T08:01:20.642Z,21.30
2018-07-12T08:03:49.037Z,21.00
2018-07-12T08:06:17.465Z,21.10
2018-07-12T08:08:45.947Z,20.80
2018-07-12T08:11:14.356Z,20.80
2018-07-12T08:13:42.752Z,20.80
2018-07-12T08:16:11.181Z,21.00
2018-07-12T08:18:40.395Z,20.90
2018-07-12T08:23:40.153Z,21.00
2018-07-12T08:26:08.646Z,20.80
2018-07-12T08:28:37.112Z,21.10
2018-07-12T08:31:05.544Z,21.40
2018-07-12T08:33:33.994Z,21.60
2018-07-12T08:36:02.396Z,21.40
2018-07-12T08:38:30.996Z,21.60
2018-07-12T08:40:59.456Z,21.70
2018-07-12T08:43:28.847Z,21.80
2018-07-12T08:45:57.249Z,21.90
2018-07-12T08:48:25.730Z,22.00
2018-07-12T08:50:54.109Z,22.10
2018-07-12T08:53:22.520Z,22.30
2018-07-12T08:55:50.936Z,22.40
2018-07-12T08:58:19.444Z,22.40
2018-07-12T09:00:47.848Z,22.50
2018-07-12T09:03:17.188Z,22.20
2018-07-12T09:05:45.648Z,22.20
2018-07-12T09:08:14.071Z,22.30
2018-07-12T09:10:42.521Z,22.20
2018-07-12T09:13:10.920Z,21.90
2018-07-12T09:15:39.358Z,21.90
2018-07-12T09:18:07.803Z,21.60
2018-07-12T09:23:04.304Z,21.70
2018-07-12T09:25:33.011Z,21.70
2018-07-12T09:28:01.339Z,21.60
2018-07-12T09:30:29.733Z,21.60
2018-07-12T09:32:58.197Z,21.70
2018-07-12T09:35:26.787Z,21.80
2018-07-12T09:37:55.235Z,22.00
2018-07-12T09:40:23.690Z,22.10
2018-07-12T09:42:52.236Z,21.90
2018-07-12T09:45:20.645Z,22.20
2018-07-12T09:47:49.093Z,22.60
2018-07-12T09:50:17.541Z,22.30
2018-07-12T09:52:45.944Z,22.80
2018-07-12T09:55:14.390Z,23.10
2018-07-12T09:57:54.217Z,23.10
2018-07-12T10:00:28.125Z,23.30
2018-07-12T10:03:01.925Z,23.10
2018-07-12T10:05:36.093Z,22.90
2018-07-12T10:08:10.057Z,23.00
2018-07-12T10:10:43.764Z,22.80
2018-07-12T10:13:17.480Z,22.60
2018-07-12T10:15:46.021Z,22.40
2018-07-12T10:18:19.999Z,22.50
2018-07-12T10:20:48.409Z,22.90
2018-07-12T10:23:16.829Z,22.70
2018-07-12T10:25:45.240Z,22.80
2018-07-12T10:28:13.688Z,22.50
2018-07-12T10:30:42.121Z,22.60
2018-07-12T10:33:10.534Z,22.60
2018-07-12T10:35:38.929Z,22.40
2018-07-12T10:38:07.601Z,22.60
2018-07-12T10:40:36.395Z,22.90
2018-07-12T10:43:04.821Z,22.90
2018-07-12T10:45:33.216Z,22.40
2018-07-12T10:48:01.659Z,22.90
2018-07-12T10:52:58.209Z,23.50
2018-07-12T10:55:26.668Z,24.00
2018-07-12T10:57:55.254Z,23.90
2018-07-12T11:00:23.736Z,24.10
2018-07-12T11:02:52.280Z,24.10
2018-07-12T11:05:20.705Z,24.10
2018-07-12T11:07:49.450Z,23.90
2018-07-12T11:10:18.387Z,24.00
2018-07-12T11:12:56.896Z,23.90
2018-07-12T11:15:25.333Z,24.10
2018-07-12T11:17:53.772Z,24.10
2018-07-12T11:20:22.214Z,24.10
2018-07-12T11:22:50.679Z,24.20
2018-07-12T11:25:19.160Z,24.20
2018-07-12T11:27:47.668Z,24.20
2018-07-12T11:30:16.161Z,24.30
2018-07-12T11:32:44.589Z,24.40
2018-07-12T11:35:13.048Z,24.60
2018-07-12T11:37:42.397Z,24.50
2018-07-12T11:40:10.837Z,24.70
2018-07-12T11:42:42.206Z,24.70
2018-07-12T11:45:10.700Z,24.90
2018-07-12T11:47:39.205Z,25.20
2018-07-12T11:50:07.908Z,25.30
2018-07-12T11:52:36.457Z,25.40
2018-07-12T11:55:05.135Z,25.50
2018-07-12T11:57:33.520Z,25.00
2018-07-12T12:00:02.057Z,25.10
2018-07-12T12:02:30.532Z,24.60
2018-07-12T12:04:58.955Z,25.00
2018-07-12T12:07:27.349Z,25.30
2018-07-12T12:09:55.819Z,25.50
2018-07-12T12:12:24.360Z,25.50
2018-07-12T12:14:52.808Z,25.10
2018-07-12T12:17:21.296Z,25.10
2018-07-12T12:19:49.842Z,24.90
2018-07-12T12:22:18.253Z,25.20
2018-07-12T12:24:46.732Z,25.20
2018-07-12T12:27:15.144Z,25.20
2018-07-12T12:29:43.550Z,25.40
2018-07-12T12:32:11.960Z,25.30
2018-07-12T12:34:40.456Z,25.40
2018-07-12T12:37:08.876Z,25.20
2018-07-12T12:39:37.369Z,24.90
2018-07-12T12:42:06.012Z,25.20
2018-07-12T12:44:34.489Z,25.30
2018-07-12T12:47:03.002Z,25.40
2018-07-12T12:51:59.605Z,25.70
2018-07-12T12:54:28.053Z,25.80
2018-07-12T12:56:56.470Z,25.90
2018-07-12T12:59:24.872Z,25.70
2018-07-12T13:01:53.319Z,25.80
2018-07-12T13:04:21.726Z,26.10
2018-07-12T13:06:50.162Z,26.10
2018-07-12T13:09:18.556Z,26.10
2018-07-12T13:11:46.980Z,25.80
2018-07-12T13:14:15.652Z,26.00
2018-07-12T13:16:44.168Z,25.70
2018-07-12T13:19:12.660Z,26.20
2018-07-12T13:21:41.145Z,26.50
2018-07-12T13:24:09.643Z,26.80
2018-07-12T13:26:38.121Z,26.80
2018-07-12T13:29:07.031Z,26.90
2018-07-12T13:31:35.541Z,26.90
2018-07-12T13:34:03.965Z,26.40
2018-07-12T13:36:32.400Z,26.30
2018-07-12T13:39:00.867Z,26.00
2018-07-12T13:41:29.544Z,26.20
2018-07-12T13:44:09.190Z,26.50
2018-07-12T13:46:37.632Z,26.80
2018-07-12T13:49:06.125Z,26.90
2018-07-12T13:51:34.617Z,26.70
2018-07-12T13:54:03.092Z,26.60
2018-07-12T13:56:31.541Z,26.80
2018-07-12T13:59:00.106Z,26.80
2018-07-12T14:01:28.639Z,26.70
2018-07-12T14:03:57.069Z,26.50
2018-07-12T14:06:25.473Z,26.20
2018-07-12T14:08:53.932Z,26.30
2018-07-12T14:11:22.601Z,26.30
2018-07-12T14:13:51.809Z,26.50
2018-07-12T14:16:20.609Z,26.60
2018-07-12T14:18:49.060Z,26.40
2018-07-12T14:21:17.792Z,26.50
2018-07-12T14:23:46.468Z,26.00
2018-07-12T14:26:14.904Z,26.00
2018-07-12T14:28:43.896Z,26.20
2018-07-12T14:31:12.463Z,26.40
2018-07-12T14:33:40.900Z,26.50
2018-07-12T14:36:09.372Z,26.50
2018-07-12T14:38:37.817Z,26.70
2018-07-12T14:41:06.311Z,26.30
2018-07-12T14:43:34.746Z,26.10
2018-07-12T14:46:03.194Z,26.00
2018-07-12T14:48:31.630Z,25.80
2018-07-12T14:51:00.229Z,25.90
2018-07-12T14:53:28.634Z,25.90
2018-07-12T14:55:57.237Z,26.00
2018-07-12T14:58:25.725Z,26.10
2018-07-12T15:00:54.592Z,26.30
2018-07-12T15:03:23.181Z,26.50
2018-07-12T15:05:51.638Z,26.40
2018-07-12T15:08:20.107Z,26.30
2018-07-12T15:10:48.925Z,26.40
2018-07-12T15:13:17.471Z,26.40
2018-07-12T15:15:46.089Z,26.60
2018-07-12T15:18:14.581Z,26.40
2018-07-12T15:20:43.063Z,25.90
2018-07-12T15:23:11.536Z,25.80
2018-07-12T15:25:40.034Z,25.40
2018-07-12T15:28:08.504Z,25.40
2018-07-12T15:30:36.909Z,25.30
2018-07-12T15:33:05.549Z,25.40
2018-07-12T15:35:34.181Z,25.60
2018-07-12T15:38:02.555Z,25.70
2018-07-12T15:40:31.075Z,25.70
2018-07-12T15:42:59.543Z,25.60
2018-07-12T15:45:27.973Z,25.60
2018-07-12T15:47:56.446Z,25.90
2018-07-12T15:50:26.255Z,26.20
2018-07-12T15:52:54.873Z,26.30
2018-07-12T15:55:23.326Z,26.20
2018-07-12T15:57:51.748Z,26.40
2018-07-12T16:02:48.268Z,26.40
2018-07-12T16:05:16.811Z,26.50
2018-07-12T16:07:45.250Z,26.80
2018-07-12T16:10:13.993Z,26.70
2018-07-12T16:12:42.421Z,26.80
2018-07-12T16:15:10.824Z,26.90
2018-07-12T16:17:39.336Z,27.00
2018-07-12T16:20:07.868Z,27.00
2018-07-12T16:22:36.309Z,27.10
2018-07-12T16:25:04.808Z,27.00
2018-07-12T16:27:33.515Z,26.90
2018-07-12T16:30:02.001Z,26.80
2018-07-12T16:32:30.366Z,27.00
2018-07-12T16:34:58.907Z,26.80
2018-07-12T16:37:27.330Z,26.40
2018-07-12T16:39:55.752Z,26.40
2018-07-12T16:42:24.242Z,26.70
2018-07-12T16:44:52.695Z,26.60
2018-07-12T16:47:21.201Z,26.70
2018-07-12T16:49:49.625Z,26.80
2018-07-12T16:52:18.088Z,26.80
2018-07-12T16:54:46.530Z,26.80
2018-07-12T16:57:15.048Z,26.70
2018-07-12T16:59:43.545Z,26.90
2018-07-12T17:02:12.032Z,26.90
2018-07-12T17:04:40.489Z,26.70
2018-07-12T17:07:09.027Z,26.60
2018-07-12T17:09:37.692Z,26.40
2018-07-12T17:12:06.180Z,26.30
2018-07-12T17:14:34.636Z,26.00
2018-07-12T17:17:03.009Z,25.80
2018-07-12T17:19:31.431Z,25.80
2018-07-12T17:21:59.865Z,25.80
2018-07-12T17:24:28.270Z,25.70
2018-07-12T17:26:56.661Z,25.70
2018-07-12T17:29:25.126Z,25.70
2018-07-12T17:31:53.561Z,25.70
2018-07-12T17:34:21.972Z,25.60
2018-07-12T17:36:50.669Z,25.70
2018-07-12T17:39:19.057Z,25.70
2018-07-12T17:41:47.536Z,25.60
2018-07-12T17:44:15.962Z,25.50
2018-07-12T17:46:44.438Z,25.50
2018-07-12T17:49:12.924Z,25.50
2018-07-12T17:54:09.523Z,25.50
2018-07-12T17:56:38.038Z,25.40
2018-07-12T17:59:06.445Z,25.30
2018-07-12T18:01:34.926Z,25.30
2018-07-12T18:04:03.437Z,25.30
2018-07-12T18:06:31.917Z,25.30
2018-07-12T18:09:00.432Z,25.30
2018-07-12T18:11:28.856Z,25.30
2018-07-12T18:13:57.329Z,25.30
2018-07-12T18:18:54.027Z,25.30
2018-07-12T18:21:22.505Z,25.40
2018-07-12T18:23:50.985Z,25.50
2018-07-12T18:26:19.423Z,25.40
2018-07-12T18:28:47.845Z,25.40
2018-07-12T18:31:16.240Z,25.40
2018-07-12T18:33:44.748Z,25.40
2018-07-12T18:36:13.292Z,25.30
2018-07-12T18:38:41.738Z,25.30
2018-07-12T18:41:10.274Z,25.20
2018-07-12T18:43:38.866Z,25.20
2018-07-12T18:46:07.236Z,25.10
2018-07-12T18:48:35.653Z,24.90
2018-07-12T18:53:32.285Z,24.80
2018-07-12T18:56:00.848Z,24.70
2018-07-12T18:58:29.329Z,24.60
2018-07-12T19:00:57.818Z,24.60
2018-07-12T19:03:26.224Z,24.50
2018-07-12T19:05:55.220Z,24.40
2018-07-12T19:08:23.838Z,24.40
2018-07-12T19:10:52.302Z,24.20
2018-07-12T19:13:20.749Z,24.10
2018-07-12T19:15:49.289Z,24.00
2018-07-12T19:18:17.752Z,23.80
2018-07-12T19:20:46.353Z,23.80
2018-07-12T19:23:14.976Z,23.60
2018-07-12T19:25:43.433Z,23.60
2018-07-12T19:28:11.888Z,23.40
2018-07-12T19:30:40.546Z,23.40
2018-07-12T19:33:08.994Z,23.30
2018-07-12T19:35:37.816Z,23.30
2018-07-12T19:38:06.412Z,23.20
2018-07-12T19:40:34.846Z,23.10
2018-07-12T19:43:03.276Z,23.10
2018-07-12T19:45:31.889Z,23.00
2018-07-12T19:48:00.418Z,22.90
2018-07-12T19:50:28.800Z,22.80
2018-07-12T19:52:57.248Z,22.70
2018-07-12T19:55:25.672Z,22.70
2018-07-12T19:57:54.137Z,22.60
2018-07-12T20:00:23.071Z,22.60
2018-07-12T20:05:19.753Z,22.40
2018-07-12T20:07:48.293Z,22.50
2018-07-12T20:10:16.807Z,22.40
2018-07-12T20:12:45.293Z,22.40
2018-07-12T20:15:13.821Z,22.40
2018-07-12T20:17:42.254Z,22.30
2018-07-12T20:20:10.688Z,22.30
2018-07-12T20:22:39.102Z,22.30
2018-07-12T20:25:07.600Z,22.20
2018-07-12T20:27:36.032Z,22.20
2018-07-12T20:30:05.025Z,22.20
2018-07-12T20:32:33.576Z,22.20
2018-07-12T20:35:02.138Z,22.20
2018-07-12T20:37:30.537Z,22.20
2018-07-12T20:39:58.945Z,22.20
2018-07-12T20:42:27.437Z,22.20
2018-07-12T20:44:56.052Z,22.20
2018-07-12T20:47:24.542Z,22.10
2018-07-12T20:49:52.976Z,22.10
2018-07-12T20:52:21.438Z,22.10
2018-07-12T20:54:49.971Z,22.10
2018-07-12T20:57:18.344Z,22.10
2018-07-12T20:59:46.787Z,22.10
2018-07-12T21:02:15.434Z,21.90
2018-07-12T21:04:43.832Z,21.80
2018-07-12T21:07:12.387Z,21.70
2018-07-12T21:09:40.862Z,21.70
2018-07-12T21:12:09.265Z,21.50
2018-07-12T21:14:37.763Z,21.40
2018-07-12T21:17:06.181Z,21.40
2018-07-12T21:22:02.670Z,21.30
2018-07-12T21:24:31.086Z,21.20
2018-07-12T21:26:59.522Z,21.10
2018-07-12T21:29:27.935Z,21.00
2018-07-12T21:31:56.481Z,20.90
2018-07-12T21:34:24.921Z,20.90
2018-07-12T21:36:53.398Z,20.80
2018-07-12T21:39:21.808Z,20.70
2018-07-12T21:41:50.263Z,20.60
2018-07-12T21:44:18.729Z,20.50
2018-07-12T21:46:47.164Z,20.50
2018-07-12T21:49:15.607Z,20.40
2018-07-12T21:51:44.099Z,20.40
2018-07-12T21:54:12.451Z,20.30
2018-07-12T21:56:40.897Z,20.20
2018-07-12T21:59:09.340Z,20.20
2018-07-12T22:01:37.828Z,20.10
2018-07-12T22:04:06.269Z,20.00
2018-07-12T22:07:16.432Z,20.00
2018-07-12T22:09:44.933Z,19.90
2018-07-12T22:12:13.376Z,19.80
2018-07-12T22:14:41.789Z,19.80
2018-07-12T22:17:10.228Z,19.70
2018-07-12T22:19:38.648Z,19.70
2018-07-12T22:22:07.063Z,19.60
2018-07-12T22:24:35.528Z,19.60
2018-07-12T22:32:00.839Z,19.50
2018-07-12T22:34:29.263Z,19.50
2018-07-12T22:39:25.809Z,19.30
2018-07-12T22:41:54.190Z,19.30
2018-07-12T22:46:50.751Z,19.20
2018-07-12T22:51:47.296Z,19.10
2018-07-12T22:54:15.917Z,19.10
2018-07-12T22:56:44.374Z,19.00
2018-07-12T22:59:12.798Z,19.00
2018-07-12T23:01:41.205Z,19.00
2018-07-12T23:04:09.664Z,18.90
2018-07-12T23:06:38.171Z,18.90
2018-07-12T23:09:07.044Z,18.90
2018-07-12T23:11:35.627Z,18.90
2018-07-12T23:14:04.040Z,19.00
2018-07-12T23:16:32.553Z,19.00
2018-07-12T23:19:01.265Z,19.00
2018-07-12T23:21:29.705Z,18.90
2018-07-12T23:23:58.113Z,18.90
2018-07-12T23:26:26.501Z,19.00
2018-07-12T23:28:54.893Z,19.00
2018-07-12T23:31:23.284Z,19.00
2018-07-12T23:33:51.668Z,19.00
2018-07-12T23:36:20.203Z,19.00
2018-07-12T23:38:48.584Z,19.00
2018-07-12T23:41:17.009Z,19.00
2018-07-12T23:43:45.550Z,19.10
2018-07-12T23:46:13.985Z,19.00
2018-07-12T23:48:42.368Z,19.00
2018-07-12T23:51:10.852Z,18.90
2018-07-12T23:56:07.509Z,18.80
2018-07-12T23:58:35.895Z,18.80
